createdAt,value
2018-11-13T00:02:25.789Z,12.90
2018-11-13T00:05:29.002Z,13.00
2018-11-13T00:08:32.000Z,13.00
2018-11-13T00:11:34.999Z,13.00
2018-11-13T00:14:37.892Z,12.90
2018-11-13T00:17:40.854Z,12.70
2018-11-13T00:20:43.777Z,12.60
2018-11-13T00:23:46.782Z,12.60
2018-11-13T00:26:49.750Z,12.70
2018-11-13T00:29:52.677Z,12.60
2018-11-13T00:32:55.630Z,12.50
2018-11-13T00:35:58.627Z,12.40
2018-11-13T00:39:01.578Z,12.50
2018-11-13T00:42:05.017Z,12.30
2018-11-13T00:45:08.165Z,12.50
2018-11-13T00:48:11.070Z,12.60
2018-11-13T00:51:14.045Z,12.70
2018-11-13T00:54:16.946Z,12.70
2018-11-13T00:57:19.903Z,12.60
2018-11-13T01:00:22.889Z,12.70
2018-11-13T01:03:25.888Z,12.60
2018-11-13T01:06:28.836Z,12.70
2018-11-13T01:09:31.852Z,12.70
2018-11-13T01:12:34.796Z,12.50
2018-11-13T01:15:37.699Z,12.60
2018-11-13T01:18:40.575Z,12.50
2018-11-13T01:21:43.482Z,12.50
2018-11-13T01:24:46.429Z,12.60
2018-11-13T01:27:49.334Z,12.60
2018-11-13T01:30:52.296Z,12.60
2018-11-13T01:33:55.233Z,12.60
2018-11-13T01:36:58.182Z,12.60
2018-11-13T01:40:01.109Z,12.70
2018-11-13T01:43:04.130Z,12.60
2018-11-13T01:46:07.157Z,12.70
2018-11-13T01:49:10.123Z,13.00
2018-11-13T01:52:13.073Z,12.90
2018-11-13T01:55:16.113Z,12.90
2018-11-13T01:58:19.035Z,12.70
2018-11-13T02:01:21.982Z,12.80
2018-11-13T02:04:24.960Z,12.70
2018-11-13T02:07:27.961Z,12.80
2018-11-13T02:10:30.892Z,12.90
2018-11-13T02:13:33.845Z,12.70
2018-11-13T02:16:36.786Z,12.60
2018-11-13T02:19:39.792Z,12.50
2018-11-13T02:22:42.885Z,12.60
2018-11-13T02:25:45.834Z,12.50
2018-11-13T02:28:48.770Z,12.60
2018-11-13T02:31:51.705Z,12.60
2018-11-13T02:34:54.610Z,12.70
2018-11-13T02:37:57.537Z,12.70
2018-11-13T02:41:00.459Z,12.60
2018-11-13T02:44:03.636Z,12.50
2018-11-13T02:47:06.536Z,12.60
2018-11-13T02:50:11.856Z,12.60
2018-11-13T02:53:14.820Z,12.70
2018-11-13T02:56:17.747Z,12.60
2018-11-13T02:59:20.644Z,12.70
2018-11-13T03:02:23.593Z,12.70
2018-11-13T03:05:26.565Z,12.80
2018-11-13T03:08:29.610Z,12.60
2018-11-13T03:11:32.568Z,12.40
2018-11-13T03:14:35.481Z,12.30
2018-11-13T03:17:38.536Z,12.40
2018-11-13T03:20:41.500Z,12.40
2018-11-13T03:23:44.405Z,12.50
2018-11-13T03:26:47.359Z,12.60
2018-11-13T03:29:50.803Z,12.60
2018-11-13T03:32:54.133Z,12.50
2018-11-13T03:35:57.048Z,12.50
2018-11-13T03:38:59.962Z,12.50
2018-11-13T03:42:02.941Z,12.50
2018-11-13T03:45:06.945Z,12.40
2018-11-13T03:48:09.937Z,12.40
2018-11-13T03:51:12.874Z,12.50
2018-11-13T03:54:15.776Z,12.50
2018-11-13T03:57:18.694Z,12.40
2018-11-13T04:00:22.574Z,12.60
2018-11-13T04:03:25.514Z,12.50
2018-11-13T04:06:28.449Z,12.50
2018-11-13T04:09:31.421Z,12.40
2018-11-13T04:12:34.439Z,12.50
2018-11-13T04:15:37.425Z,12.40
2018-11-13T04:18:40.375Z,12.40
2018-11-13T04:21:47.865Z,12.50
2018-11-13T04:24:50.781Z,12.40
2018-11-13T04:27:53.693Z,12.30
2018-11-13T04:30:56.623Z,12.30
2018-11-13T04:33:59.616Z,12.30
2018-11-13T04:37:02.588Z,12.20
2018-11-13T04:40:08.700Z,12.20
2018-11-13T04:43:11.589Z,12.20
2018-11-13T04:46:14.522Z,12.30
2018-11-13T04:49:17.414Z,12.40
2018-11-13T04:52:20.315Z,12.50
2018-11-13T04:55:23.265Z,12.40
2018-11-13T04:58:26.315Z,12.40
2018-11-13T05:01:29.264Z,12.50
2018-11-13T05:04:32.170Z,12.40
2018-11-13T05:07:35.376Z,12.40
2018-11-13T05:10:38.362Z,12.20
2018-11-13T05:13:41.320Z,12.20
2018-11-13T05:16:44.218Z,12.30
2018-11-13T05:19:47.106Z,12.20
2018-11-13T05:22:50.091Z,12.10
2018-11-13T05:25:53.048Z,12.10
2018-11-13T05:28:56.006Z,12.20
2018-11-13T05:31:59.146Z,12.30
2018-11-13T05:35:02.059Z,12.10
2018-11-13T05:38:05.175Z,12.10
2018-11-13T05:41:08.222Z,12.10
2018-11-13T05:44:11.137Z,12.20
2018-11-13T05:47:14.106Z,12.30
2018-11-13T05:50:17.789Z,12.20
2018-11-13T05:53:20.721Z,12.00
2018-11-13T05:56:23.689Z,12.10
2018-11-13T05:59:26.633Z,12.20
2018-11-13T06:02:29.569Z,12.00
2018-11-13T06:05:33.060Z,12.00
2018-11-13T06:08:36.020Z,12.10
2018-11-13T06:11:38.977Z,12.00
2018-11-13T06:14:41.921Z,12.10
2018-11-13T06:17:44.864Z,12.10
2018-11-13T06:20:47.788Z,12.10
2018-11-13T06:23:50.840Z,12.10
2018-11-13T06:26:53.739Z,12.00
2018-11-13T06:29:56.657Z,12.00
2018-11-13T06:32:59.588Z,12.00
2018-11-13T06:36:02.534Z,12.10
2018-11-13T06:39:09.362Z,12.10
2018-11-13T06:42:12.284Z,12.10
2018-11-13T06:45:17.910Z,12.20
2018-11-13T06:48:20.814Z,12.30
2018-11-13T06:51:23.765Z,12.20
2018-11-13T06:54:57.338Z,12.10
2018-11-13T06:58:00.496Z,12.30
2018-11-13T07:01:03.409Z,12.30
2018-11-13T07:04:06.401Z,12.20
2018-11-13T07:07:09.297Z,12.00
2018-11-13T07:10:16.638Z,12.10
2018-11-13T07:13:19.561Z,12.10
2018-11-13T07:16:22.522Z,12.00
2018-11-13T07:19:25.449Z,11.90
2018-11-13T07:22:28.312Z,12.00
2018-11-13T07:25:31.443Z,12.00
2018-11-13T07:28:34.321Z,12.00
2018-11-13T07:31:37.289Z,12.00
2018-11-13T07:34:40.206Z,12.00
2018-11-13T07:37:44.923Z,12.00
2018-11-13T07:40:47.926Z,12.00
2018-11-13T07:43:50.908Z,12.00
2018-11-13T07:46:53.837Z,12.00
2018-11-13T07:49:56.744Z,12.00
2018-11-13T07:52:59.866Z,12.10
2018-11-13T07:56:02.783Z,12.00
2018-11-13T07:59:06.008Z,12.10
2018-11-13T08:02:08.977Z,12.10
2018-11-13T08:05:11.941Z,12.10
2018-11-13T08:08:14.916Z,12.10
2018-11-13T08:11:17.854Z,12.10
2018-11-13T08:14:20.812Z,12.30
2018-11-13T08:17:23.766Z,12.90
2018-11-13T08:20:26.741Z,12.70
2018-11-13T08:23:29.742Z,12.60
2018-11-13T08:26:32.680Z,12.50
2018-11-13T08:29:35.701Z,12.40
2018-11-13T08:32:38.608Z,12.50
2018-11-13T08:35:41.676Z,13.60
2018-11-13T08:38:44.560Z,13.30
2018-11-13T08:41:47.506Z,13.20
2018-11-13T08:44:50.448Z,12.90
2018-11-13T08:47:53.465Z,12.80
2018-11-13T08:50:56.480Z,12.70
2018-11-13T08:53:59.429Z,12.70
2018-11-13T08:57:02.357Z,12.50
2018-11-13T09:00:08.192Z,12.50
2018-11-13T09:03:11.184Z,12.50
2018-11-13T09:06:14.116Z,12.50
2018-11-13T09:09:18.002Z,12.60
2018-11-13T09:12:21.019Z,12.60
2018-11-13T09:15:23.937Z,12.50
2018-11-13T09:18:26.874Z,12.50
2018-11-13T09:21:29.761Z,13.30
2018-11-13T09:24:32.832Z,13.00
2018-11-13T09:27:35.737Z,13.00
2018-11-13T09:30:38.901Z,12.80
2018-11-13T09:33:41.714Z,12.70
2018-11-13T09:36:44.566Z,13.00
2018-11-13T09:39:47.482Z,12.80
2018-11-13T09:42:51.382Z,13.40
2018-11-13T09:45:54.328Z,13.20
2018-11-13T09:48:57.179Z,12.90
2018-11-13T09:52:00.245Z,12.80
2018-11-13T09:55:04.009Z,12.70
2018-11-13T09:58:06.993Z,12.60
2018-11-13T10:01:10.144Z,12.70
2018-11-13T10:04:13.774Z,12.70
2018-11-13T10:07:16.101Z,12.70
2018-11-13T10:10:19.219Z,12.70
2018-11-13T10:13:22.107Z,12.70
2018-11-13T10:16:25.064Z,12.70
2018-11-13T10:19:28.027Z,12.70
2018-11-13T10:22:30.967Z,12.90
2018-11-13T10:25:33.893Z,12.90
2018-11-13T10:28:36.825Z,13.10
2018-11-13T10:31:39.719Z,13.00
2018-11-13T10:34:42.628Z,12.90
2018-11-13T10:37:45.595Z,12.90
2018-11-13T10:40:48.726Z,12.90
2018-11-13T10:43:51.478Z,13.10
2018-11-13T10:46:54.378Z,13.20
2018-11-13T10:49:57.319Z,13.50
2018-11-13T10:53:00.233Z,13.40
2018-11-13T10:56:03.161Z,13.30
2018-11-13T10:59:06.098Z,13.30
2018-11-13T11:02:14.741Z,13.40
2018-11-13T11:05:17.708Z,13.80
2018-11-13T11:08:20.688Z,13.90
2018-11-13T11:11:23.690Z,13.60
2018-11-13T11:14:26.584Z,13.30
2018-11-13T11:17:29.506Z,13.20
2018-11-13T11:20:32.446Z,13.20
2018-11-13T11:23:35.419Z,13.60
2018-11-13T11:26:38.286Z,13.70
2018-11-13T11:29:41.325Z,13.70
2018-11-13T11:32:44.279Z,13.40
2018-11-13T11:35:47.234Z,13.20
2018-11-13T11:38:50.367Z,13.10
2018-11-13T11:41:53.169Z,13.30
2018-11-13T11:44:56.276Z,13.50
2018-11-13T11:47:59.208Z,13.30
2018-11-13T11:51:02.227Z,13.60
2018-11-13T11:54:05.746Z,13.40
2018-11-13T11:57:08.931Z,14.50
2018-11-13T12:00:46.955Z,13.80
2018-11-13T12:03:49.929Z,13.40
2018-11-13T12:06:52.858Z,13.30
2018-11-13T12:09:55.801Z,13.30
2018-11-13T12:12:58.866Z,13.30
2018-11-13T12:16:01.761Z,13.30
2018-11-13T12:19:05.104Z,13.40
2018-11-13T12:22:07.970Z,13.50
2018-11-13T12:25:13.537Z,13.60
2018-11-13T12:28:16.561Z,13.60
2018-11-13T12:31:19.688Z,13.60
2018-11-13T12:34:22.773Z,13.50
2018-11-13T12:37:25.695Z,13.90
2018-11-13T12:40:28.660Z,14.10
2018-11-13T12:43:31.646Z,14.00
2018-11-13T12:46:34.662Z,13.90
2018-11-13T12:49:37.784Z,13.70
2018-11-13T12:52:40.835Z,13.60
2018-11-13T12:55:44.044Z,13.50
2018-11-13T12:58:46.985Z,13.40
2018-11-13T13:01:49.929Z,13.40
2018-11-13T13:04:52.957Z,13.30
2018-11-13T13:07:55.909Z,13.20
2018-11-13T13:10:58.832Z,13.60
2018-11-13T13:14:07.589Z,16.00
2018-11-13T13:17:10.561Z,16.80
2018-11-13T13:20:16.529Z,15.30
2018-11-13T13:23:19.491Z,14.30
2018-11-13T13:26:22.417Z,13.70
2018-11-13T13:29:25.443Z,13.50
2018-11-13T13:32:28.406Z,13.40
2018-11-13T13:35:45.130Z,13.30
2018-11-13T13:38:48.170Z,13.30
2018-11-13T13:41:51.008Z,13.30
2018-11-13T13:44:54.065Z,13.30
2018-11-13T13:47:57.651Z,13.30
2018-11-13T13:51:00.557Z,13.40
2018-11-13T13:54:03.768Z,13.40
2018-11-13T13:57:06.613Z,13.40
2018-11-13T14:00:11.261Z,13.40
2018-11-13T14:03:14.476Z,13.40
2018-11-13T14:06:17.393Z,15.90
2018-11-13T14:09:20.406Z,14.90
2018-11-13T14:12:23.233Z,14.20
2018-11-13T14:15:26.206Z,13.70
2018-11-13T14:18:29.135Z,14.90
2018-11-13T14:21:32.072Z,14.30
2018-11-13T14:24:35.243Z,13.80
2018-11-13T14:27:38.466Z,14.00
2018-11-13T14:30:41.508Z,14.90
2018-11-13T14:33:44.533Z,14.60
2018-11-13T14:36:47.524Z,14.00
2018-11-13T14:39:50.643Z,14.10
2018-11-13T14:42:53.625Z,13.70
2018-11-13T14:45:56.589Z,13.40
2018-11-13T14:48:59.553Z,13.10
2018-11-13T14:52:02.596Z,13.20
2018-11-13T14:55:09.951Z,13.10
2018-11-13T14:58:13.990Z,13.00
2018-11-13T15:01:17.364Z,13.00
2018-11-13T15:04:20.567Z,13.00
2018-11-13T15:07:23.649Z,12.90
2018-11-13T15:10:34.645Z,12.90
2018-11-13T15:13:37.666Z,12.90
2018-11-13T15:16:41.058Z,12.90
2018-11-13T15:19:44.065Z,12.80
2018-11-13T15:22:47.241Z,12.70
2018-11-13T15:25:50.268Z,12.80
2018-11-13T15:28:53.271Z,12.80
2018-11-13T15:31:56.450Z,12.80
2018-11-13T15:35:00.549Z,12.90
2018-11-13T15:38:03.637Z,12.90
2018-11-13T15:41:06.705Z,12.80
2018-11-13T15:44:09.698Z,12.70
2018-11-13T15:47:12.739Z,12.70
2018-11-13T15:50:18.001Z,12.70
2018-11-13T15:53:20.974Z,12.70
2018-11-13T15:56:24.618Z,12.70
2018-11-13T15:59:27.657Z,12.70
2018-11-13T16:02:30.563Z,12.80
2018-11-13T16:05:36.119Z,12.70
2018-11-13T16:08:38.983Z,12.60
2018-11-13T16:11:41.904Z,12.70
2018-11-13T16:14:44.847Z,12.60
2018-11-13T16:17:48.358Z,12.70
2018-11-13T16:20:51.299Z,12.70
2018-11-13T16:23:54.249Z,12.70
2018-11-13T16:26:57.181Z,12.70
2018-11-13T16:30:00.257Z,12.60
2018-11-13T16:33:03.173Z,12.60
2018-11-13T16:36:06.276Z,12.60
2018-11-13T16:39:12.453Z,12.60
2018-11-13T16:42:15.506Z,12.50
2018-11-13T16:45:19.610Z,12.60
2018-11-13T16:48:22.846Z,12.60
2018-11-13T16:51:25.677Z,12.50
2018-11-13T16:54:33.202Z,12.50
2018-11-13T16:57:36.257Z,12.40
2018-11-13T17:00:39.224Z,12.50
2018-11-13T17:03:42.232Z,12.40
2018-11-13T17:06:45.299Z,12.40
2018-11-13T17:09:48.100Z,12.30
2018-11-13T17:12:51.778Z,12.40
2018-11-13T17:15:54.747Z,12.30
2018-11-13T17:18:57.715Z,12.80
2018-11-13T17:22:00.722Z,12.60
2018-11-13T17:25:05.420Z,12.60
2018-11-13T17:28:08.502Z,12.40
2018-11-13T17:31:11.790Z,12.30
2018-11-13T17:34:15.203Z,12.30
2018-11-13T17:37:18.302Z,12.40
2018-11-13T17:40:22.686Z,12.50
2018-11-13T17:43:26.145Z,12.30
2018-11-13T17:46:29.273Z,12.30
2018-11-13T17:49:32.396Z,12.20
2018-11-13T17:52:35.484Z,12.10
2018-11-13T17:55:38.902Z,12.10
2018-11-13T17:58:41.893Z,12.20
2018-11-13T18:01:44.960Z,12.20
2018-11-13T18:04:48.262Z,12.20
2018-11-13T18:07:51.827Z,12.20
2018-11-13T18:10:54.854Z,12.10
2018-11-13T18:13:58.143Z,12.10
2018-11-13T18:17:01.171Z,12.10
2018-11-13T18:20:06.811Z,12.20
2018-11-13T18:23:10.283Z,12.20
2018-11-13T18:26:13.257Z,12.10
2018-11-13T18:29:16.322Z,12.00
2018-11-13T18:32:19.309Z,12.10
2018-11-13T18:35:24.435Z,12.10
2018-11-13T18:38:27.525Z,12.10
2018-11-13T18:41:30.494Z,12.00
2018-11-13T18:44:33.514Z,12.00
2018-11-13T18:47:36.604Z,12.10
2018-11-13T18:50:41.041Z,12.00
2018-11-13T18:53:44.120Z,12.00
2018-11-13T18:56:47.648Z,12.00
2018-11-13T18:59:50.673Z,11.90
2018-11-13T19:02:53.764Z,12.30
2018-11-13T19:10:06.638Z,12.10
2018-11-13T19:13:14.369Z,11.90
2018-11-13T19:16:17.468Z,12.00
2018-11-13T19:19:20.491Z,12.00
2018-11-13T19:22:23.605Z,11.90
2018-11-13T19:25:27.952Z,11.80
2018-11-13T19:28:30.966Z,11.80
2018-11-13T19:31:34.251Z,11.80
2018-11-13T19:34:37.009Z,11.80
2018-11-13T19:37:39.997Z,11.70
2018-11-13T19:40:43.014Z,11.70
2018-11-13T19:43:46.178Z,11.70
2018-11-13T19:46:49.192Z,11.80
2018-11-13T19:49:52.371Z,11.80
2018-11-13T19:52:55.351Z,11.90
2018-11-13T19:55:58.381Z,11.80
2018-11-13T19:59:01.301Z,11.80
2018-11-13T20:02:04.965Z,11.90
2018-11-13T20:05:09.942Z,11.90
2018-11-13T20:08:12.980Z,11.90
2018-11-13T20:11:16.016Z,11.90
2018-11-13T20:14:19.157Z,11.90
2018-11-13T20:17:22.244Z,11.90
2018-11-13T20:20:26.752Z,12.00
2018-11-13T20:23:29.743Z,12.00
2018-11-13T20:26:32.790Z,12.10
2018-11-13T20:29:35.776Z,12.10
2018-11-13T20:32:39.373Z,12.00
2018-11-13T20:35:42.427Z,12.10
2018-11-13T20:38:45.585Z,12.10
2018-11-13T20:41:48.562Z,12.10
2018-11-13T20:44:51.580Z,11.90
2018-11-13T20:47:54.564Z,11.90
2018-11-13T20:50:57.561Z,11.80
2018-11-13T20:54:00.586Z,11.90
2018-11-13T20:57:03.626Z,11.80
2018-11-13T21:00:10.531Z,11.70
2018-11-13T21:03:13.532Z,11.90
2018-11-13T21:06:16.531Z,11.90
2018-11-13T21:09:19.649Z,11.80
2018-11-13T21:12:22.686Z,11.70
2018-11-13T21:15:25.665Z,11.80
2018-11-13T21:18:28.590Z,11.70
2018-11-13T21:21:31.590Z,12.00
2018-11-13T21:24:34.618Z,12.00
2018-11-13T21:27:37.710Z,11.80
2018-11-13T21:30:40.746Z,11.80
2018-11-13T21:33:43.717Z,11.70
2018-11-13T21:36:46.744Z,11.70
2018-11-13T21:39:49.762Z,11.70
2018-11-13T21:42:53.370Z,11.70
2018-11-13T21:45:56.581Z,11.80
2018-11-13T21:48:59.684Z,11.70
2018-11-13T21:52:02.778Z,11.60
2018-11-13T21:55:08.645Z,11.70
2018-11-13T21:58:12.535Z,11.60
2018-11-13T22:01:15.651Z,11.70
2018-11-13T22:04:18.627Z,11.60
2018-11-13T22:07:21.816Z,11.60
2018-11-13T22:10:24.785Z,11.60
2018-11-13T22:13:27.713Z,11.60
2018-11-13T22:16:30.705Z,11.60
2018-11-13T22:19:33.654Z,11.40
2018-11-13T22:22:36.865Z,11.50
2018-11-13T22:25:39.807Z,11.50
2018-11-13T22:28:42.867Z,11.50
2018-11-13T22:31:45.715Z,11.50
2018-11-13T22:34:48.661Z,11.70
2018-11-13T22:37:51.583Z,11.60
2018-11-13T22:40:54.591Z,11.60
2018-11-13T22:43:57.546Z,11.60
2018-11-13T22:47:07.120Z,11.60
2018-11-13T22:50:14.229Z,11.40
2018-11-13T22:53:17.157Z,11.30
2018-11-13T22:56:20.101Z,11.30
2018-11-13T22:59:23.165Z,11.40
2018-11-13T23:02:26.492Z,11.40
2018-11-13T23:05:29.090Z,11.50
2018-11-13T23:08:32.032Z,11.50
2018-11-13T23:11:34.993Z,11.40
2018-11-13T23:14:37.941Z,11.50
2018-11-13T23:17:41.991Z,11.40
2018-11-13T23:20:44.996Z,11.40
2018-11-13T23:23:47.969Z,11.40
2018-11-13T23:26:50.915Z,11.30
2018-11-13T23:29:53.877Z,11.30
2018-11-13T23:32:57.793Z,11.40
2018-11-13T23:36:00.799Z,11.30
2018-11-13T23:39:05.569Z,11.30
2018-11-13T23:42:08.613Z,11.10
2018-11-13T23:45:12.670Z,11.10
2018-11-13T23:48:15.637Z,11.20
2018-11-13T23:51:18.613Z,11.00
2018-11-13T23:54:21.593Z,11.00
2018-11-13T23:57:24.568Z,11.10
